sensor_id;sensor_type;location;lat;lon;timestamp;temperature;humidity
8736;DHT22;4404;49.308;12.178;2023-08-21T05:33:38;21.90;99.90
8736;DHT22;4404;49.308;12.178;2023-08-21T05:35:41;22.00;99.90
8736;DHT22;4404;49.308;12.178;2023-08-21T05:39:46;22.20;99.90
8736;DHT22;4404;49.308;12.178;2023-08-21T05:41:49;22.40;99.90
8736;DHT22;4404;49.308;12.178;2023-08-21T05:43:51;22.50;99.90
8736;DHT22;4404;49.308;12.178;2023-08-21T05:45:53;22.60;99.90
8736;DHT22;4404;49.308;12.178;2023-08-21T05:47:55;22.70;99.90
8736;DHT22;4404;49.308;12.178;2023-08-21T05:49:59;22.80;99.90
8736;DHT22;4404;49.308;12.178;2023-08-21T05:52:01;23.00;99.90
8736;DHT22;4404;49.308;12.178;2023-08-21T05:54:03;23.00;99.90
8736;DHT22;4404;49.308;12.178;2023-08-21T05:56:05;23.10;99.90
8736;DHT22;4404;49.308;12.178;2023-08-21T05:58:07;23.10;99.90
8736;DHT22;4404;49.308;12.178;2023-08-21T06:00:11;23.20;99.90
8736;DHT22;4404;49.308;12.178;2023-08-21T06:02:14;23.30;99.90
8736;DHT22;4404;49.308;12.178;2023-08-21T06:04:16;23.20;99.90
8736;DHT22;4404;49.308;12.178;2023-08-21T06:06:19;23.20;99.90
8736;DHT22;4404;49.308;12.178;2023-08-21T06:08:21;23.30;99.90
8736;DHT22;4404;49.308;12.178;2023-08-21T06:10:23;23.30;99.90
8736;DHT22;4404;49.308;12.178;2023-08-21T06:12:26;23.40;99.90
8736;DHT22;4404;49.308;12.178;2023-08-21T06:14:28;23.40;99.90
8736;DHT22;4404;49.308;12.178;2023-08-21T06:16:30;23.40;99.90
8736;DHT22;4404;49.308;12.178;2023-08-21T06:18:32;23.50;99.90
8736;DHT22;4404;49.308;12.178;2023-08-21T06:20:34;23.50;99.90
8736;DHT22;4404;49.308;12.178;2023-08-21T06:22:38;23.50;99.90
8736;DHT22;4404;49.308;12.178;2023-08-21T06:24:40;23.60;99.90
8736;DHT22;4404;49.308;12.178;2023-08-21T06:26:42;23.60;99.90
8736;DHT22;4404;49.308;12.178;2023-08-21T06:28:44;23.60;99.90
8736;DHT22;4404;49.308;12.178;2023-08-21T06:30:46;23.70;99.90
8736;DHT22;4404;49.308;12.178;2023-08-21T06:32:48;23.70;99.90
8736;DHT22;4404;49.308;12.178;2023-08-21T06:34:50;23.70;99.90
8736;DHT22;4404;49.308;12.178;2023-08-21T06:36:52;23.70;99.90
8736;DHT22;4404;49.308;12.178;2023-08-21T06:38:56;23.70;99.90
8736;DHT22;4404;49.308;12.178;2023-08-21T06:40:58;23.80;99.90
8736;DHT22;4404;49.308;12.178;2023-08-21T06:43:00;23.80;99.90
8736;DHT22;4404;49.308;12.178;2023-08-21T06:45:05;23.80;99.90
8736;DHT22;4404;49.308;12.178;2023-08-21T06:47:08;23.80;99.90
8736;DHT22;4404;49.308;12.178;2023-08-21T06:49:10;23.80;99.90
8736;DHT22;4404;49.308;12.178;2023-08-21T06:51:12;23.80;99.90
8736;DHT22;4404;49.308;12.178;2023-08-21T06:53:14;23.90;99.90
8736;DHT22;4404;49.308;12.178;2023-08-21T06:55:16;24.00;99.90
8736;DHT22;4404;49.308;12.178;2023-08-21T06:57:18;24.10;99.90
8736;DHT22;4404;49.308;12.178;2023-08-21T06:59:21;24.20;99.90
8736;DHT22;4404;49.308;12.178;2023-08-21T07:01:23;24.30;99.90
8736;DHT22;4404;49.308;12.178;2023-08-21T07:03:25;24.30;99.90
8736;DHT22;4404;49.308;12.178;2023-08-21T07:05:27;24.40;99.90
8736;DHT22;4404;49.308;12.178;2023-08-21T07:07:29;24.40;99.90
8736;DHT22;4404;49.308;12.178;2023-08-21T07:09:31;24.50;99.90
8736;DHT22;4404;49.308;12.178;2023-08-21T07:11:34;24.50;99.90
8736;DHT22;4404;49.308;12.178;2023-08-21T07:13:37;24.60;99.90
8736;DHT22;4404;49.308;12.178;2023-08-21T07:15:39;24.60;99.90
8736;DHT22;4404;49.308;12.178;2023-08-21T07:17:41;24.70;99.90
8736;DHT22;4404;49.308;12.178;2023-08-21T07:19:43;24.90;99.90
8736;DHT22;4404;49.308;12.178;2023-08-21T07:21:45;25.00;99.90
8736;DHT22;4404;49.308;12.178;2023-08-21T07:23:47;25.10;99.90
8736;DHT22;4404;49.308;12.178;2023-08-21T07:25:50;25.10;99.90
8736;DHT22;4404;49.308;12.178;2023-08-21T07:27:52;25.20;99.90
8736;DHT22;4404;49.308;12.178;2023-08-21T07:29:55;25.30;99.90
8736;DHT22;4404;49.308;12.178;2023-08-21T07:31:57;24.60;99.90
8736;DHT22;4404;49.308;12.178;2023-08-21T07:33:59;25.50;99.90
8736;DHT22;4404;49.308;12.178;2023-08-21T07:36:03;25.60;99.90
8736;DHT22;4404;49.308;12.178;2023-08-21T07:38:06;25.50;99.90
8736;DHT22;4404;49.308;12.178;2023-08-21T07:40:09;25.60;99.90
8736;DHT22;4404;49.308;12.178;2023-08-21T07:42:11;25.60;99.90
8736;DHT22;4404;49.308;12.178;2023-08-21T07:44:15;25.60;99.90
8736;DHT22;4404;49.308;12.178;2023-08-21T07:46:17;25.60;99.90
8736;DHT22;4404;49.308;12.178;2023-08-21T07:48:20;25.60;99.90
8736;DHT22;4404;49.308;12.178;2023-08-21T07:50:21;25.70;99.90
8736;DHT22;4404;49.308;12.178;2023-08-21T07:52:23;25.80;99.90
8736;DHT22;4404;49.308;12.178;2023-08-21T07:54:40;25.80;99.90
8736;DHT22;4404;49.308;12.178;2023-08-21T07:57:11;24.30;99.90
8736;DHT22;4404;49.308;12.178;2023-08-21T07:59:46;25.90;99.90
8736;DHT22;4404;49.308;12.178;2023-08-21T08:01:49;25.80;99.90
8736;DHT22;4404;49.308;12.178;2023-08-21T08:03:52;26.00;99.90
8736;DHT22;4404;49.308;12.178;2023-08-21T08:05:55;26.00;99.90
8736;DHT22;4404;49.308;12.178;2023-08-21T08:07:57;26.10;99.90
8736;DHT22;4404;49.308;12.178;2023-08-21T08:09:59;26.10;99.90
8736;DHT22;4404;49.308;12.178;2023-08-21T08:12:01;26.10;99.90
8736;DHT22;4404;49.308;12.178;2023-08-21T08:14:04;26.20;99.90
8736;DHT22;4404;49.308;12.178;2023-08-21T08:16:17;26.30;99.90
8736;DHT22;4404;49.308;12.178;2023-08-21T08:18:19;26.40;99.90
8736;DHT22;4404;49.308;12.178;2023-08-21T08:20:21;26.40;99.90
8736;DHT22;4404;49.308;12.178;2023-08-21T08:22:23;26.60;99.90
8736;DHT22;4404;49.308;12.178;2023-08-21T08:24:25;26.60;99.90
8736;DHT22;4404;49.308;12.178;2023-08-21T08:26:28;26.70;99.90
8736;DHT22;4404;49.308;12.178;2023-08-21T08:28:30;26.80;99.90
8736;DHT22;4404;49.308;12.178;2023-08-21T08:30:33;26.90;99.90
8736;DHT22;4404;49.308;12.178;2023-08-21T08:32:36;26.90;99.90
8736;DHT22;4404;49.308;12.178;2023-08-21T08:34:40;27.10;99.90
8736;DHT22;4404;49.308;12.178;2023-08-21T08:36:42;27.20;99.90
8736;DHT22;4404;49.308;12.178;2023-08-21T08:38:44;27.30;99.90
8736;DHT22;4404;49.308;12.178;2023-08-21T08:40:47;27.20;99.90
8736;DHT22;4404;49.308;12.178;2023-08-21T08:42:49;27.30;99.90
8736;DHT22;4404;49.308;12.178;2023-08-21T08:44:53;27.30;99.90
8736;DHT22;4404;49.308;12.178;2023-08-21T08:46:56;27.40;99.90
8736;DHT22;4404;49.308;12.178;2023-08-21T08:49:01;27.40;99.90
8736;DHT22;4404;49.308;12.178;2023-08-21T08:51:03;27.40;99.90
8736;DHT22;4404;49.308;12.178;2023-08-21T08:53:07;27.50;99.90
8736;DHT22;4404;49.308;12.178;2023-08-21T08:55:09;27.50;99.90
8736;DHT22;4404;49.308;12.178;2023-08-21T08:57:12;27.60;99.90
8736;DHT22;4404;49.308;12.178;2023-08-21T08:59:14;27.50;99.90
8736;DHT22;4404;49.308;12.178;2023-08-21T09:01:16;27.60;99.90
8736;DHT22;4404;49.308;12.178;2023-08-21T09:03:18;27.60;99.90
8736;DHT22;4404;49.308;12.178;2023-08-21T09:05:21;27.70;99.90
8736;DHT22;4404;49.308;12.178;2023-08-21T09:07:25;27.90;99.90
8736;DHT22;4404;49.308;12.178;2023-08-21T09:09:27;27.90;99.90
8736;DHT22;4404;49.308;12.178;2023-08-21T09:11:43;28.00;99.90
8736;DHT22;4404;49.308;12.178;2023-08-21T09:13:46;28.10;99.90
8736;DHT22;4404;49.308;12.178;2023-08-21T09:15:54;28.10;99.90
8736;DHT22;4404;49.308;12.178;2023-08-21T09:17:56;28.30;99.90
8736;DHT22;4404;49.308;12.178;2023-08-21T09:20:03;28.40;99.90
8736;DHT22;4404;49.308;12.178;2023-08-21T09:22:12;28.40;99.90
8736;DHT22;4404;49.308;12.178;2023-08-21T09:24:15;28.50;99.90
8736;DHT22;4404;49.308;12.178;2023-08-21T09:26:21;28.50;99.90
8736;DHT22;4404;49.308;12.178;2023-08-21T09:28:25;28.50;99.90
8736;DHT22;4404;49.308;12.178;2023-08-21T09:30:27;28.50;99.90
8736;DHT22;4404;49.308;12.178;2023-08-21T09:32:29;28.60;99.90
8736;DHT22;4404;49.308;12.178;2023-08-21T09:34:36;28.60;99.90
8736;DHT22;4404;49.308;12.178;2023-08-21T09:40:09;28.70;99.90
8736;DHT22;4404;49.308;12.178;2023-08-21T09:42:12;28.60;99.90
8736;DHT22;4404;49.308;12.178;2023-08-21T09:44:19;28.70;99.90
8736;DHT22;4404;49.308;12.178;2023-08-21T09:46:26;28.70;99.90
8736;DHT22;4404;49.308;12.178;2023-08-21T09:48:32;28.80;99.90
8736;DHT22;4404;49.308;12.178;2023-08-21T09:50:35;28.90;99.90
8736;DHT22;4404;49.308;12.178;2023-08-21T09:52:39;28.90;99.90
8736;DHT22;4404;49.308;12.178;2023-08-21T09:54:42;29.00;99.90
8736;DHT22;4404;49.308;12.178;2023-08-21T09:56:50;29.00;99.90
8736;DHT22;4404;49.308;12.178;2023-08-21T09:58:57;29.00;99.90
8736;DHT22;4404;49.308;12.178;2023-08-21T10:01:04;29.00;99.90
8736;DHT22;4404;49.308;12.178;2023-08-21T10:03:13;29.20;99.90
8736;DHT22;4404;49.308;12.178;2023-08-21T10:05:16;29.20;99.90
8736;DHT22;4404;49.308;12.178;2023-08-21T10:07:21;29.30;99.90
8736;DHT22;4404;49.308;12.178;2023-08-21T10:09:27;29.40;99.90
8736;DHT22;4404;49.308;12.178;2023-08-21T10:11:33;29.50;99.90
8736;DHT22;4404;49.308;12.178;2023-08-21T10:13:39;29.50;99.90
8736;DHT22;4404;49.308;12.178;2023-08-21T10:15:43;29.50;99.90
8736;DHT22;4404;49.308;12.178;2023-08-21T10:17:52;29.60;99.90
8736;DHT22;4404;49.308;12.178;2023-08-21T10:20:02;29.60;99.90
8736;DHT22;4404;49.308;12.178;2023-08-21T10:22:07;29.70;99.90
8736;DHT22;4404;49.308;12.178;2023-08-21T10:24:26;29.70;99.90
8736;DHT22;4404;49.308;12.178;2023-08-21T10:26:38;29.70;99.90
8736;DHT22;4404;49.308;12.178;2023-08-21T10:28:48;29.80;99.90
8736;DHT22;4404;49.308;12.178;2023-08-21T10:30:54;29.40;99.90
8736;DHT22;4404;49.308;12.178;2023-08-21T10:32:59;30.00;99.90
8736;DHT22;4404;49.308;12.178;2023-08-21T10:35:17;30.00;99.90
8736;DHT22;4404;49.308;12.178;2023-08-21T10:37:32;30.10;99.90
8736;DHT22;4404;49.308;12.178;2023-08-21T10:40:31;30.20;99.90
8736;DHT22;4404;49.308;12.178;2023-08-21T10:42:43;30.30;99.90
8736;DHT22;4404;49.308;12.178;2023-08-21T10:44:53;30.40;99.90
8736;DHT22;4404;49.308;12.178;2023-08-21T10:47:23;30.40;99.90
8736;DHT22;4404;49.308;12.178;2023-08-21T10:49:34;30.60;99.90
8736;DHT22;4404;49.308;12.178;2023-08-21T10:51:36;30.70;99.90
8736;DHT22;4404;49.308;12.178;2023-08-21T10:53:38;30.70;99.90
8736;DHT22;4404;49.308;12.178;2023-08-21T10:55:54;30.80;99.90
8736;DHT22;4404;49.308;12.178;2023-08-21T10:58:13;31.00;99.90
8736;DHT22;4404;49.308;12.178;2023-08-21T11:00:22;31.00;99.90
8736;DHT22;4404;49.308;12.178;2023-08-21T11:02:39;31.20;99.90
8736;DHT22;4404;49.308;12.178;2023-08-21T11:07:41;32.00;99.90
8736;DHT22;4404;49.308;12.178;2023-08-21T11:09:45;31.70;99.90
8736;DHT22;4404;49.308;12.178;2023-08-21T11:11:48;31.90;99.90
8736;DHT22;4404;49.308;12.178;2023-08-21T11:13:53;32.10;99.90
8736;DHT22;4404;49.308;12.178;2023-08-21T11:16:00;32.20;99.90
8736;DHT22;4404;49.308;12.178;2023-08-21T11:18:05;32.40;99.90
8736;DHT22;4404;49.308;12.178;2023-08-21T11:20:09;32.40;99.90
8736;DHT22;4404;49.308;12.178;2023-08-21T11:22:12;32.70;99.90
8736;DHT22;4404;49.308;12.178;2023-08-21T11:24:14;32.70;99.90
8736;DHT22;4404;49.308;12.178;2023-08-21T11:26:20;32.80;99.90
8736;DHT22;4404;49.308;12.178;2023-08-21T11:28:23;33.00;99.90
8736;DHT22;4404;49.308;12.178;2023-08-21T11:30:25;33.10;99.90
8736;DHT22;4404;49.308;12.178;2023-08-21T11:32:28;33.30;99.90
8736;DHT22;4404;49.308;12.178;2023-08-21T11:34:32;33.30;99.90
8736;DHT22;4404;49.308;12.178;2023-08-21T11:36:33;33.50;99.90
8736;DHT22;4404;49.308;12.178;2023-08-21T11:38:36;33.60;99.90
8736;DHT22;4404;49.308;12.178;2023-08-21T11:40:38;33.70;99.90
8736;DHT22;4404;49.308;12.178;2023-08-21T11:42:40;33.70;99.90
8736;DHT22;4404;49.308;12.178;2023-08-21T11:44:44;33.80;99.90
8736;DHT22;4404;49.308;12.178;2023-08-21T11:46:46;33.80;99.90
8736;DHT22;4404;49.308;12.178;2023-08-21T11:48:52;33.70;99.90
8736;DHT22;4404;49.308;12.178;2023-08-21T11:50:54;33.80;99.90
8736;DHT22;4404;49.308;12.178;2023-08-21T11:52:56;33.80;99.60
8736;DHT22;4404;49.308;12.178;2023-08-21T11:54:58;33.80;99.90
8736;DHT22;4404;49.308;12.178;2023-08-21T11:57:03;33.80;98.70
8736;DHT22;4404;49.308;12.178;2023-08-21T11:59:05;33.80;98.90
8736;DHT22;4404;49.308;12.178;2023-08-21T12:01:07;33.90;99.00
8736;DHT22;4404;49.308;12.178;2023-08-21T12:03:10;34.00;98.90
8736;DHT22;4404;49.308;12.178;2023-08-21T12:05:20;34.10;99.00
8736;DHT22;4404;49.308;12.178;2023-08-21T12:07:23;34.00;97.60
8736;DHT22;4404;49.308;12.178;2023-08-21T12:09:25;34.20;97.80
8736;DHT22;4404;49.308;12.178;2023-08-21T12:11:27;34.20;97.30
8736;DHT22;4404;49.308;12.178;2023-08-21T12:13:29;34.30;96.20
8736;DHT22;4404;49.308;12.178;2023-08-21T12:15:32;34.30;95.30
8736;DHT22;4404;49.308;12.178;2023-08-21T12:17:35;34.20;95.80
8736;DHT22;4404;49.308;12.178;2023-08-21T12:19:38;34.30;95.70
8736;DHT22;4404;49.308;12.178;2023-08-21T12:21:41;34.50;95.50
8736;DHT22;4404;49.308;12.178;2023-08-21T12:23:43;34.60;94.80
8736;DHT22;4404;49.308;12.178;2023-08-21T12:25:45;34.90;93.90
8736;DHT22;4404;49.308;12.178;2023-08-21T12:27:47;35.00;93.90
8736;DHT22;4404;49.308;12.178;2023-08-21T12:29:49;35.10;93.60
8736;DHT22;4404;49.308;12.178;2023-08-21T12:31:52;35.20;93.30
8736;DHT22;4404;49.308;12.178;2023-08-21T12:33:54;35.40;92.70
8736;DHT22;4404;49.308;12.178;2023-08-21T12:35:56;35.50;92.50
8736;DHT22;4404;49.308;12.178;2023-08-21T12:37:59;35.70;92.10
8736;DHT22;4404;49.308;12.178;2023-08-21T12:40:07;35.80;91.70
8736;DHT22;4404;49.308;12.178;2023-08-21T12:42:09;35.90;91.30
8736;DHT22;4404;49.308;12.178;2023-08-21T12:44:12;35.90;91.50
8736;DHT22;4404;49.308;12.178;2023-08-21T12:46:14;35.90;88.10
8736;DHT22;4404;49.308;12.178;2023-08-21T12:48:16;35.80;89.60
8736;DHT22;4404;49.308;12.178;2023-08-21T12:50:18;35.90;88.60
8736;DHT22;4404;49.308;12.178;2023-08-21T12:52:20;36.00;87.80
8736;DHT22;4404;49.308;12.178;2023-08-21T12:54:24;36.00;87.30
8736;DHT22;4404;49.308;12.178;2023-08-21T12:56:26;36.00;88.40
8736;DHT22;4404;49.308;12.178;2023-08-21T12:58:29;36.10;89.90
8736;DHT22;4404;49.308;12.178;2023-08-21T13:00:31;36.20;87.30
8736;DHT22;4404;49.308;12.178;2023-08-21T13:02:33;36.30;86.30
8736;DHT22;4404;49.308;12.178;2023-08-21T13:04:35;36.20;84.80
8736;DHT22;4404;49.308;12.178;2023-08-21T13:06:37;36.10;85.30
8736;DHT22;4404;49.308;12.178;2023-08-21T13:08:39;35.90;85.30
8736;DHT22;4404;49.308;12.178;2023-08-21T13:10:46;35.80;84.50
8736;DHT22;4404;49.308;12.178;2023-08-21T13:12:48;35.70;86.90
8736;DHT22;4404;49.308;12.178;2023-08-21T13:14:50;35.70;86.80
8736;DHT22;4404;49.308;12.178;2023-08-21T13:16:52;35.70;85.20
8736;DHT22;4404;49.308;12.178;2023-08-21T13:19:03;35.70;84.70
8736;DHT22;4404;49.308;12.178;2023-08-21T13:21:11;35.70;84.90
8736;DHT22;4404;49.308;12.178;2023-08-21T13:23:15;35.50;85.10
8736;DHT22;4404;49.308;12.178;2023-08-21T13:25:53;35.30;88.30
8736;DHT22;4404;49.308;12.178;2023-08-21T13:28:31;35.10;88.10
8736;DHT22;4404;49.308;12.178;2023-08-21T13:30:45;35.00;86.50
8736;DHT22;4404;49.308;12.178;2023-08-21T13:32:50;34.90;85.70
8736;DHT22;4404;49.308;12.178;2023-08-21T13:34:52;34.80;87.60
8736;DHT22;4404;49.308;12.178;2023-08-21T13:36:54;34.60;88.60
8736;DHT22;4404;49.308;12.178;2023-08-21T13:38:56;34.60;89.70
8736;DHT22;4404;49.308;12.178;2023-08-21T13:41:00;34.50;90.00
8736;DHT22;4404;49.308;12.178;2023-08-21T13:43:03;34.60;90.80
8736;DHT22;4404;49.308;12.178;2023-08-21T13:45:07;34.70;90.30
8736;DHT22;4404;49.308;12.178;2023-08-21T13:47:10;34.60;90.50
8736;DHT22;4404;49.308;12.178;2023-08-21T13:49:13;34.60;90.10
8736;DHT22;4404;49.308;12.178;2023-08-21T13:51:16;34.50;90.20
8736;DHT22;4404;49.308;12.178;2023-08-21T13:53:18;34.40;88.60
8736;DHT22;4404;49.308;12.178;2023-08-21T13:55:20;34.30;89.40
8736;DHT22;4404;49.308;12.178;2023-08-21T13:57:27;34.30;89.60
8736;DHT22;4404;49.308;12.178;2023-08-21T13:59:34;34.20;88.50
8736;DHT22;4404;49.308;12.178;2023-08-21T14:01:36;34.20;90.60
8736;DHT22;4404;49.308;12.178;2023-08-21T14:03:56;33.00;90.10
8736;DHT22;4404;49.308;12.178;2023-08-21T14:06:12;34.20;91.80
8736;DHT22;4404;49.308;12.178;2023-08-21T14:08:14;34.20;90.40
8736;DHT22;4404;49.308;12.178;2023-08-21T14:10:16;34.10;90.80
8736;DHT22;4404;49.308;12.178;2023-08-21T14:12:36;34.30;91.80
8736;DHT22;4404;49.308;12.178;2023-08-21T14:14:39;34.30;91.70
8736;DHT22;4404;49.308;12.178;2023-08-21T14:16:44;34.30;91.50
8736;DHT22;4404;49.308;12.178;2023-08-21T14:18:47;34.20;90.60
8736;DHT22;4404;49.308;12.178;2023-08-21T14:20:50;34.20;91.00
8736;DHT22;4404;49.308;12.178;2023-08-21T14:23:00;34.20;92.50
8736;DHT22;4404;49.308;12.178;2023-08-21T14:25:28;34.10;91.60
8736;DHT22;4404;49.308;12.178;2023-08-21T14:27:30;33.90;92.50
8736;DHT22;4404;49.308;12.178;2023-08-21T14:29:41;33.90;92.90
8736;DHT22;4404;49.308;12.178;2023-08-21T14:31:43;33.90;92.80
8736;DHT22;4404;49.308;12.178;2023-08-21T14:33:47;33.70;91.40
8736;DHT22;4404;49.308;12.178;2023-08-21T14:35:50;33.50;92.90
8736;DHT22;4404;49.308;12.178;2023-08-21T14:38:07;33.40;92.60
8736;DHT22;4404;49.308;12.178;2023-08-21T14:40:10;33.30;93.00
8736;DHT22;4404;49.308;12.178;2023-08-21T14:42:13;33.20;94.30
8736;DHT22;4404;49.308;12.178;2023-08-21T14:44:15;33.10;93.50
8736;DHT22;4404;49.308;12.178;2023-08-21T14:46:18;33.00;93.00
8736;DHT22;4404;49.308;12.178;2023-08-21T14:48:21;33.10;94.30
8736;DHT22;4404;49.308;12.178;2023-08-21T14:50:24;33.30;94.60
8736;DHT22;4404;49.308;12.178;2023-08-21T14:52:26;33.40;94.00
8736;DHT22;4404;49.308;12.178;2023-08-21T14:54:37;33.50;94.00
8736;DHT22;4404;49.308;12.178;2023-08-21T14:56:40;33.60;93.60
8736;DHT22;4404;49.308;12.178;2023-08-21T14:58:44;33.70;92.40
8736;DHT22;4404;49.308;12.178;2023-08-21T15:00:46;33.80;93.20
8736;DHT22;4404;49.308;12.178;2023-08-21T15:02:54;33.80;93.00
8736;DHT22;4404;49.308;12.178;2023-08-21T15:04:56;33.80;92.40
8736;DHT22;4404;49.308;12.178;2023-08-21T15:06:59;34.00;92.90
8736;DHT22;4404;49.308;12.178;2023-08-21T15:09:01;33.80;92.40
8736;DHT22;4404;49.308;12.178;2023-08-21T15:11:06;33.70;93.50
8736;DHT22;4404;49.308;12.178;2023-08-21T15:13:16;33.70;93.40
8736;DHT22;4404;49.308;12.178;2023-08-21T15:15:30;33.60;92.70
8736;DHT22;4404;49.308;12.178;2023-08-21T15:17:43;33.70;93.10
8736;DHT22;4404;49.308;12.178;2023-08-21T15:19:49;33.60;93.50
8736;DHT22;4404;49.308;12.178;2023-08-21T15:21:56;33.50;93.00
8736;DHT22;4404;49.308;12.178;2023-08-21T15:24:06;33.50;92.20
8736;DHT22;4404;49.308;12.178;2023-08-21T15:26:18;33.60;92.00
8736;DHT22;4404;49.308;12.178;2023-08-21T15:28:23;33.50;92.30
8736;DHT22;4404;49.308;12.178;2023-08-21T15:30:26;33.40;92.50
8736;DHT22;4404;49.308;12.178;2023-08-21T15:32:28;33.40;93.40
8736;DHT22;4404;49.308;12.178;2023-08-21T15:34:35;33.40;92.90
8736;DHT22;4404;49.308;12.178;2023-08-21T15:50:02;33.40;92.80
8736;DHT22;4404;49.308;12.178;2023-08-21T15:52:14;33.50;92.70
8736;DHT22;4404;49.308;12.178;2023-08-21T15:54:18;33.50;93.10
8736;DHT22;4404;49.308;12.178;2023-08-21T15:56:27;33.40;92.10
8736;DHT22;4404;49.308;12.178;2023-08-21T15:58:41;33.50;92.90
8736;DHT22;4404;49.308;12.178;2023-08-21T16:00:47;33.50;93.10
8736;DHT22;4404;49.308;12.178;2023-08-21T16:02:51;33.70;93.90
8736;DHT22;4404;49.308;12.178;2023-08-21T16:04:53;33.60;93.10
8736;DHT22;4404;49.308;12.178;2023-08-21T16:06:55;33.60;92.60
8736;DHT22;4404;49.308;12.178;2023-08-21T16:08:57;33.50;92.60
8736;DHT22;4404;49.308;12.178;2023-08-21T16:10:59;33.40;93.10
8736;DHT22;4404;49.308;12.178;2023-08-21T16:13:01;33.50;93.40
8736;DHT22;4404;49.308;12.178;2023-08-21T16:15:05;33.60;93.90
8736;DHT22;4404;49.308;12.178;2023-08-21T16:17:07;33.40;92.50
8736;DHT22;4404;49.308;12.178;2023-08-21T16:19:11;33.50;92.30
8736;DHT22;4404;49.308;12.178;2023-08-21T16:21:13;33.40;92.00
8736;DHT22;4404;49.308;12.178;2023-08-21T16:23:15;33.40;92.80
8736;DHT22;4404;49.308;12.178;2023-08-21T16:25:17;33.40;93.60
8736;DHT22;4404;49.308;12.178;2023-08-21T16:27:19;33.40;92.10
8736;DHT22;4404;49.308;12.178;2023-08-21T16:29:21;33.30;93.10
8736;DHT22;4404;49.308;12.178;2023-08-21T16:36:49;33.20;93.10
8736;DHT22;4404;49.308;12.178;2023-08-21T16:38:55;33.10;93.60
8736;DHT22;4404;49.308;12.178;2023-08-21T16:41:17;33.00;92.80
8736;DHT22;4404;49.308;12.178;2023-08-21T16:43:19;33.00;93.50
8736;DHT22;4404;49.308;12.178;2023-08-21T16:45:22;33.00;94.10
8736;DHT22;4404;49.308;12.178;2023-08-21T16:47:29;33.00;94.70
8736;DHT22;4404;49.308;12.178;2023-08-21T17:36:02;31.20;99.90
8736;DHT22;4404;49.308;12.178;2023-08-21T17:41:24;30.90;99.90
8736;DHT22;4404;49.308;12.178;2023-08-21T17:44:02;30.80;99.90
8736;DHT22;4404;49.308;12.178;2023-08-21T17:46:05;30.30;99.90
8736;DHT22;4404;49.308;12.178;2023-08-21T17:48:29;30.50;99.90
8736;DHT22;4404;49.308;12.178;2023-08-21T17:56:45;30.00;99.90
8736;DHT22;4404;49.308;12.178;2023-08-21T17:59:22;30.10;99.90
8736;DHT22;4404;49.308;12.178;2023-08-21T18:01:55;30.40;99.90
8736;DHT22;4404;49.308;12.178;2023-08-21T18:18:05;29.50;99.90
8736;DHT22;4404;49.308;12.178;2023-08-21T18:20:52;28.50;99.90
8736;DHT22;4404;49.308;12.178;2023-08-21T18:22:56;29.00;99.90
8736;DHT22;4404;49.308;12.178;2023-08-21T18:24:58;29.00;99.90
8736;DHT22;4404;49.308;12.178;2023-08-21T18:27:03;29.00;99.90
8736;DHT22;4404;49.308;12.178;2023-08-21T18:29:05;28.90;99.90
8736;DHT22;4404;49.308;12.178;2023-08-21T18:33:24;28.80;99.90
8736;DHT22;4404;49.308;12.178;2023-08-21T18:35:27;28.70;99.90
8736;DHT22;4404;49.308;12.178;2023-08-21T18:37:31;28.60;99.90
8736;DHT22;4404;49.308;12.178;2023-08-21T18:39:34;28.50;99.90
8736;DHT22;4404;49.308;12.178;2023-08-21T18:41:36;28.50;99.90
8736;DHT22;4404;49.308;12.178;2023-08-21T18:43:40;28.40;99.90
8736;DHT22;4404;49.308;12.178;2023-08-21T18:45:44;28.30;99.90
8736;DHT22;4404;49.308;12.178;2023-08-21T18:47:46;28.30;99.90
8736;DHT22;4404;49.308;12.178;2023-08-21T18:49:49;28.20;99.90
8736;DHT22;4404;49.308;12.178;2023-08-21T18:51:51;28.20;99.90
8736;DHT22;4404;49.308;12.178;2023-08-21T18:53:52;28.10;99.90
8736;DHT22;4404;49.308;12.178;2023-08-21T18:55:54;28.00;99.90
8736;DHT22;4404;49.308;12.178;2023-08-21T18:57:56;28.00;99.90
8736;DHT22;4404;49.308;12.178;2023-08-21T19:00:00;27.90;99.90
8736;DHT22;4404;49.308;12.178;2023-08-21T19:02:09;27.90;99.90
8736;DHT22;4404;49.308;12.178;2023-08-21T19:04:11;27.80;99.90
8736;DHT22;4404;49.308;12.178;2023-08-21T19:06:13;27.80;99.90
8736;DHT22;4404;49.308;12.178;2023-08-21T19:08:16;27.70;99.90
8736;DHT22;4404;49.308;12.178;2023-08-21T19:10:18;27.70;99.90
8736;DHT22;4404;49.308;12.178;2023-08-21T19:12:20;27.70;99.90
8736;DHT22;4404;49.308;12.178;2023-08-21T19:14:22;27.60;99.90
8736;DHT22;4404;49.308;12.178;2023-08-21T19:16:26;27.60;99.90
8736;DHT22;4404;49.308;12.178;2023-08-21T19:18:28;27.50;99.90
8736;DHT22;4404;49.308;12.178;2023-08-21T19:20:30;27.50;99.90
8736;DHT22;4404;49.308;12.178;2023-08-21T19:22:33;27.40;99.90
8736;DHT22;4404;49.308;12.178;2023-08-21T19:24:35;27.40;99.90
8736;DHT22;4404;49.308;12.178;2023-08-21T19:26:37;27.30;99.90
8736;DHT22;4404;49.308;12.178;2023-08-21T19:28:39;27.30;99.90
8736;DHT22;4404;49.308;12.178;2023-08-21T19:30:42;27.20;99.90
8736;DHT22;4404;49.308;12.178;2023-08-21T19:32:47;27.20;99.90
8736;DHT22;4404;49.308;12.178;2023-08-21T19:34:49;26.80;99.90
8736;DHT22;4404;49.308;12.178;2023-08-21T19:36:56;27.20;99.90
8736;DHT22;4404;49.308;12.178;2023-08-21T19:38:58;27.10;99.90
8736;DHT22;4404;49.308;12.178;2023-08-21T19:41:00;27.10;99.90
8736;DHT22;4404;49.308;12.178;2023-08-21T19:43:02;27.10;99.90
8736;DHT22;4404;49.308;12.178;2023-08-21T19:45:06;27.00;99.90
8736;DHT22;4404;49.308;12.178;2023-08-21T19:47:09;27.00;99.90
8736;DHT22;4404;49.308;12.178;2023-08-21T19:49:13;27.00;99.90
